KCVN/CVN METAR and TAF weather

Enter ICAO airport designator
Station Type Date Time Source
KCVN METAR 2021/05/11 16:56 UTC NOAA

KCVN 111656Z AUTO 06011KT 10SM OVC008 11/09 A3014 RMK AO2 CIG 007V012 SLP196 T01060089


Station Type Date Time Source
KCVN Decoded METAR 2021/05/11 16:56 UTC NOAA

Clovis, Clovis Municipal Airport, NM, United States (KCVN) 34-26N 103-05W
May 11, 2021 - 12:56 PM EDT / 2021.05.11 1656 UTC
Wind: from the ENE (060 degrees) at 13 MPH (11 KT):0
Visibility: 10 mile(s):0
Sky conditions: overcast
Temperature: 51.1 F (10.6 C)
Dew Point: 48.0 F (8.9 C)
Relative Humidity: 89%
Pressure (altimeter): 30.14 in. Hg (1020 hPa)
ob: KCVN 111656Z AUTO 06011KT 10SM OVC008 11/09 A3014 RMK AO2 CIG 007V012 SLP196 T01060089
cycle: 17

Station Type Date Time Source
KCVN TAF UTC NOAA

Error!

Example: see airport list